createdAt,value
2022-10-28T00:01:37.380Z,153062.94
2022-10-28T00:04:12.169Z,153057.78
2022-10-28T00:06:43.363Z,153059.06
2022-10-28T00:09:13.578Z,153059.06
2022-10-28T00:11:44.073Z,153053.88
2022-10-28T00:14:18.198Z,153055.22
2022-10-28T00:16:48.713Z,153034.44
2022-10-28T00:19:18.948Z,153022.81
2022-10-28T00:21:49.328Z,153037.06
2022-10-28T00:24:19.938Z,153026.72
2022-10-28T00:26:50.278Z,153039.63
2022-10-28T00:29:24.762Z,153039.63
2022-10-28T00:31:55.995Z,153044.81
2022-10-28T00:34:26.401Z,153044.81
2022-10-28T00:36:56.972Z,153049.97
2022-10-28T00:39:28.697Z,153056.50
2022-10-28T00:42:04.031Z,153048.69
2022-10-28T00:44:55.786Z,153034.44
2022-10-28T00:47:35.868Z,153011.19
2022-10-28T00:50:15.448Z,153030.59
2022-10-28T00:52:50.844Z,153042.25
2022-10-28T00:55:22.660Z,153040.97
2022-10-28T00:57:56.844Z,153046.13
2022-10-28T01:00:30.966Z,153029.28
2022-10-28T01:03:01.463Z,153044.81
2022-10-28T01:05:35.513Z,153053.88
2022-10-28T01:08:07.896Z,153039.63
2022-10-28T01:11:08.772Z,153015.03
2022-10-28T01:13:49.670Z,153022.81
2022-10-28T01:16:32.910Z,153004.66
2022-10-28T01:19:24.336Z,153017.63
2022-10-28T01:22:09.374Z,153013.75
2022-10-28T01:24:58.223Z,153008.56
2022-10-28T01:28:02.980Z,153008.56
2022-10-28T01:30:44.767Z,153022.81
2022-10-28T01:33:28.003Z,153026.72
2022-10-28T01:36:08.358Z,153030.59
2022-10-28T01:38:47.020Z,153033.16
2022-10-28T01:41:21.987Z,153020.19
2022-10-28T01:43:58.318Z,153020.19
2022-10-28T01:46:31.954Z,153020.19
2022-10-28T01:49:08.823Z,152991.75
2022-10-28T01:51:45.187Z,152993.03
2022-10-28T01:54:19.038Z,152996.94
2022-10-28T01:56:51.665Z,152991.75
2022-10-28T01:59:26.306Z,153004.66
2022-10-28T02:01:57.468Z,153006.00
2022-10-28T02:04:30.812Z,153006.00
2022-10-28T02:07:03.121Z,153002.09
2022-10-28T02:09:46.493Z,153007.28
2022-10-28T02:12:27.482Z,153011.19
2022-10-28T02:15:22.702Z,153013.75
2022-10-28T02:17:59.975Z,153016.34
2022-10-28T02:20:42.271Z,153013.75
2022-10-28T02:23:23.864Z,153017.63
2022-10-28T02:26:00.085Z,153007.28
2022-10-28T02:28:41.350Z,153021.53
2022-10-28T02:31:23.040Z,153012.47
2022-10-28T02:33:57.668Z,153017.63
2022-10-28T02:36:35.389Z,153002.09
2022-10-28T02:39:07.416Z,152990.44
2022-10-28T02:41:43.678Z,153007.28
2022-10-28T02:44:17.098Z,152989.16
2022-10-28T02:46:51.110Z,152991.75
2022-10-28T02:49:21.604Z,153002.09
2022-10-28T02:51:59.314Z,152980.06
2022-10-28T02:54:34.288Z,152989.16
2022-10-28T02:57:09.078Z,152991.75
2022-10-28T02:59:39.426Z,152987.88
2022-10-28T03:02:09.822Z,152994.31
2022-10-28T03:04:40.405Z,152986.59
2022-10-28T03:07:13.238Z,153003.38
2022-10-28T03:09:43.659Z,152995.66
2022-10-28T03:12:14.406Z,152998.22
2022-10-28T03:14:44.876Z,153002.09
2022-10-28T03:17:15.152Z,152994.31
2022-10-28T03:19:45.478Z,152980.06
2022-10-28T03:22:18.529Z,152972.34
2022-10-28T03:24:48.603Z,152973.63
2022-10-28T03:27:19.058Z,152968.44
2022-10-28T03:29:49.379Z,152973.63
2022-10-28T03:32:19.887Z,152946.47
2022-10-28T03:34:50.770Z,152934.72
2022-10-28T03:37:23.472Z,152945.13
2022-10-28T03:39:53.900Z,152943.84
2022-10-28T03:42:24.242Z,152943.84
2022-10-28T03:44:54.441Z,152959.38
2022-10-28T03:47:24.677Z,152950.31
2022-10-28T03:49:55.058Z,152964.53
2022-10-28T03:52:28.040Z,152959.38
2022-10-28T03:54:58.127Z,152961.97
2022-10-28T03:57:28.454Z,152964.53
2022-10-28T03:59:58.566Z,152971.06
2022-10-28T04:02:29.029Z,152969.72
2022-10-28T04:04:59.178Z,152978.78
2022-10-28T04:07:31.774Z,152971.06
2022-10-28T04:10:01.819Z,152965.81
2022-10-28T04:12:31.872Z,152963.25
2022-10-28T04:15:01.972Z,152958.09
2022-10-28T04:17:32.692Z,152956.81
2022-10-28T04:20:02.917Z,152965.81
2022-10-28T04:22:35.813Z,152956.81
2022-10-28T04:25:06.215Z,152965.81
2022-10-28T04:27:36.456Z,152963.25
2022-10-28T04:30:07.562Z,152954.19
2022-10-28T04:32:37.997Z,152955.47
2022-10-28T04:35:08.941Z,152963.25
2022-10-28T04:37:42.276Z,152969.72
2022-10-28T04:40:14.567Z,152971.06
2022-10-28T04:42:44.759Z,152973.63
2022-10-28T04:45:15.908Z,152932.16
2022-10-28T04:47:46.232Z,152939.91
2022-10-28T04:50:16.602Z,152950.31
2022-10-28T04:52:55.922Z,152950.31
2022-10-28T04:55:26.516Z,152933.44
2022-10-28T04:57:57.815Z,152928.28
2022-10-28T05:00:34.974Z,152941.22
2022-10-28T05:03:06.622Z,152932.16
2022-10-28T05:05:37.086Z,152921.81
2022-10-28T05:08:10.147Z,152911.41
2022-10-28T05:10:40.467Z,152910.13
2022-10-28T05:13:10.571Z,152910.13
2022-10-28T05:15:41.563Z,152914.03
2022-10-28T05:18:11.618Z,152902.41
2022-10-28T05:20:41.770Z,152919.19
2022-10-28T05:23:14.929Z,152924.38
2022-10-28T05:25:46.357Z,152929.56
2022-10-28T05:28:16.826Z,152924.38
2022-10-28T05:30:48.466Z,152917.91
2022-10-28T05:33:18.483Z,152924.38
2022-10-28T05:35:48.653Z,152932.16
2022-10-28T05:38:21.761Z,152934.72
2022-10-28T05:40:51.778Z,152906.25
2022-10-28T05:43:22.221Z,152916.63
2022-10-28T05:45:55.898Z,152919.19
2022-10-28T05:48:26.319Z,152914.03
2022-10-28T05:50:56.287Z,152914.03
2022-10-28T05:53:28.891Z,152899.78
2022-10-28T05:55:59.071Z,152916.63
2022-10-28T05:58:29.518Z,152936.00
2022-10-28T06:01:00.238Z,152932.16
2022-10-28T06:03:31.374Z,152927.00
2022-10-28T06:06:02.545Z,152928.28
2022-10-28T06:08:35.764Z,152938.63
2022-10-28T06:11:04.373Z,152936.00
2022-10-28T06:13:34.779Z,152924.38
2022-10-28T06:16:05.010Z,152947.75
2022-10-28T06:18:35.293Z,152958.09
2022-10-28T06:21:06.975Z,152967.16
2022-10-28T06:23:39.627Z,152963.25
2022-10-28T06:26:11.686Z,152972.34
2022-10-28T06:28:41.897Z,152980.06
2022-10-28T06:31:11.937Z,152981.41
2022-10-28T06:33:42.483Z,152967.16
2022-10-28T06:36:12.785Z,152972.34
2022-10-28T06:38:46.191Z,152983.97
2022-10-28T06:41:16.361Z,152991.75
2022-10-28T06:43:46.403Z,152981.41
2022-10-28T06:46:16.376Z,152939.91
2022-10-28T06:48:48.091Z,152956.81
2022-10-28T06:51:18.864Z,152961.97
2022-10-28T06:53:54.913Z,152959.38
2022-10-28T06:56:25.313Z,152967.16
2022-10-28T06:58:56.817Z,152981.41
2022-10-28T07:01:26.935Z,152977.50
2022-10-28T07:03:57.183Z,152989.16
2022-10-28T07:06:27.514Z,153013.75
2022-10-28T07:09:00.352Z,152986.59
2022-10-28T07:11:30.515Z,153000.81
2022-10-28T07:14:00.510Z,153020.19
2022-10-28T07:16:30.577Z,153029.28
2022-10-28T07:19:00.762Z,153043.53
2022-10-28T07:21:31.076Z,153042.25
2022-10-28T07:24:03.995Z,153017.63
2022-10-28T07:26:34.182Z,153038.34
2022-10-28T07:29:04.187Z,153012.47
2022-10-28T07:31:34.365Z,153037.06
2022-10-28T07:34:04.425Z,153053.88
2022-10-28T07:36:34.525Z,153059.06
2022-10-28T07:39:07.690Z,153048.69
2022-10-28T07:41:40.566Z,153052.59
2022-10-28T07:44:10.603Z,153069.41
2022-10-28T07:46:41.078Z,153066.84
2022-10-28T07:49:11.744Z,153086.28
2022-10-28T07:51:41.918Z,153101.81
2022-10-28T07:54:14.762Z,153064.22
2022-10-28T07:56:44.993Z,153075.91
2022-10-28T07:59:15.170Z,153077.19
2022-10-28T08:01:45.592Z,153106.97
2022-10-28T08:04:16.114Z,153096.63
2022-10-28T08:06:46.324Z,153082.38
2022-10-28T08:09:19.388Z,153087.56
2022-10-28T08:11:49.445Z,153106.97
2022-10-28T08:14:19.988Z,153117.34
2022-10-28T08:16:52.082Z,153105.69
2022-10-28T08:19:22.295Z,153121.25
2022-10-28T08:21:52.474Z,153136.78
2022-10-28T08:24:25.821Z,153118.63
2022-10-28T08:26:55.960Z,153117.34
2022-10-28T08:29:29.081Z,153108.28
2022-10-28T08:32:00.442Z,153118.63
2022-10-28T08:34:31.648Z,153130.31
2022-10-28T08:37:02.080Z,153139.38
2022-10-28T08:39:35.054Z,153132.88
2022-10-28T08:42:23.046Z,153143.22
2022-10-28T08:45:07.188Z,153139.38
2022-10-28T08:47:52.303Z,153165.28
2022-10-28T08:50:27.857Z,153183.38
2022-10-28T08:53:01.748Z,153210.59
2022-10-28T08:55:38.811Z,153206.72
2022-10-28T08:58:15.023Z,153198.97
2022-10-28T09:00:49.490Z,153191.16
2022-10-28T09:03:23.384Z,153200.25
2022-10-28T09:06:03.535Z,153170.47
2022-10-28T09:08:38.407Z,153175.63
2022-10-28T09:11:40.483Z,153202.81
2022-10-28T09:14:25.399Z,153210.59
2022-10-28T09:17:07.930Z,153222.25
2022-10-28T09:19:48.300Z,153236.50
2022-10-28T09:22:30.289Z,153249.47
2022-10-28T09:25:04.985Z,153270.19
2022-10-28T09:27:57.031Z,153293.53
2022-10-28T09:30:40.438Z,153307.78
2022-10-28T09:33:43.004Z,153276.66
2022-10-28T09:36:18.331Z,153300.00
2022-10-28T09:38:49.061Z,153303.91
2022-10-28T09:41:24.027Z,153315.53
2022-10-28T09:44:01.481Z,153345.41
2022-10-28T09:46:37.045Z,153332.41
2022-10-28T09:49:13.102Z,153327.25
2022-10-28T09:51:49.563Z,153351.84
2022-10-28T09:54:19.811Z,153340.16
2022-10-28T09:56:49.873Z,153323.34
2022-10-28T09:59:22.582Z,153331.09
2022-10-28T10:01:52.955Z,153329.81
2022-10-28T10:04:25.836Z,153348.00
2022-10-28T10:06:59.459Z,153370.03
2022-10-28T10:09:32.146Z,153383.00
2022-10-28T10:12:06.189Z,153366.13
2022-10-28T10:14:43.892Z,153344.06
2022-10-28T10:17:18.234Z,153353.19
2022-10-28T10:20:02.011Z,153325.91
2022-10-28T10:22:34.354Z,153349.28
2022-10-28T10:25:04.971Z,153350.56
2022-10-28T10:27:35.031Z,153329.81
2022-10-28T10:30:16.991Z,153294.81
2022-10-28T10:32:50.989Z,153311.66
2022-10-28T10:35:26.326Z,153362.28
2022-10-28T10:37:58.687Z,153359.66
2022-10-28T10:40:31.690Z,153402.44
2022-10-28T10:43:25.023Z,153436.09
2022-10-28T10:46:06.144Z,153447.81
2022-10-28T10:48:39.113Z,153392.09
2022-10-28T10:51:11.194Z,153429.63
2022-10-28T10:53:43.200Z,153454.28
2022-10-28T10:56:15.899Z,153420.56
2022-10-28T10:58:52.965Z,153449.09
2022-10-28T11:01:28.571Z,153476.34
2022-10-28T11:04:02.334Z,153508.72
2022-10-28T11:06:35.591Z,153515.19
2022-10-28T11:09:08.090Z,153452.97
2022-10-28T11:11:40.515Z,153442.63
2022-10-28T11:14:24.721Z,153475.00
2022-10-28T11:16:59.704Z,153494.44
2022-10-28T11:19:33.037Z,153528.16
2022-10-28T11:22:20.773Z,153543.72
2022-10-28T11:25:13.321Z,153535.97
2022-10-28T11:27:56.551Z,153502.25
2022-10-28T13:17:34.183Z,153539.81
2022-10-28T13:20:16.251Z,153515.19
2022-10-28T13:22:57.891Z,153530.78
2022-10-28T13:25:52.071Z,153554.09
2022-10-28T13:28:24.304Z,153559.28
2022-10-28T13:31:00.050Z,153576.16
2022-10-28T13:33:35.900Z,153586.53
2022-10-28T13:36:19.565Z,153577.44
2022-10-28T13:38:56.187Z,153585.25
2022-10-28T13:41:43.544Z,153577.44
2022-10-28T13:44:29.039Z,153570.97
2022-10-28T13:47:24.396Z,153564.47
2022-10-28T13:50:37.573Z,153546.34
2022-10-28T13:53:41.068Z,153507.44
2022-10-28T13:56:23.909Z,153490.56
2022-10-28T13:58:57.401Z,153485.38
2022-10-28T14:02:01.904Z,153530.78
2022-10-28T14:04:45.047Z,153550.25
2022-10-28T14:07:28.332Z,153558.00
2022-10-28T14:10:03.526Z,153547.63
2022-10-28T14:12:36.031Z,153561.91
2022-10-28T14:18:10.426Z,153587.81
2022-10-28T14:21:01.764Z,153556.72
2022-10-28T14:24:10.047Z,153570.97
2022-10-28T14:27:12.579Z,153559.28
2022-10-28T14:29:50.506Z,153551.53
2022-10-28T14:32:48.051Z,153548.91
2022-10-28T14:35:30.226Z,153537.25
2022-10-28T14:38:33.712Z,153554.09
2022-10-28T14:41:22.545Z,153546.34
2022-10-28T14:44:07.686Z,153535.97
2022-10-28T14:46:55.258Z,153539.81
2022-10-28T14:49:29.157Z,153535.97
2022-10-28T14:52:08.951Z,153510.00
2022-10-28T14:54:47.765Z,153512.63
2022-10-28T14:57:22.981Z,153485.38
2022-10-28T14:59:54.572Z,153486.69
2022-10-28T15:02:27.541Z,153467.25
2022-10-28T15:05:04.572Z,153460.72
2022-10-28T15:07:38.096Z,153482.81
2022-10-28T15:10:18.073Z,153473.72
2022-10-28T15:12:52.738Z,153471.16
2022-10-28T15:15:33.677Z,153482.81
2022-10-28T15:18:04.830Z,153478.91
2022-10-28T15:20:37.065Z,153471.16
2022-10-28T15:23:18.972Z,153473.72
2022-10-28T15:25:49.629Z,153476.34
2022-10-28T15:28:22.347Z,153471.16
2022-10-28T15:30:56.527Z,153465.97
2022-10-28T15:33:33.573Z,153437.44
2022-10-28T15:36:18.815Z,153447.81
2022-10-28T15:38:50.104Z,153455.56
2022-10-28T15:41:45.137Z,153449.09
2022-10-28T15:44:44.909Z,153443.91
2022-10-28T15:47:28.190Z,153450.38
2022-10-28T15:50:03.900Z,153446.53
2022-10-28T15:52:42.834Z,153450.38
2022-10-28T15:55:41.476Z,153438.72
2022-10-28T15:58:38.793Z,153441.34
2022-10-28T16:01:31.708Z,153442.63
2022-10-28T16:04:01.967Z,153438.72
2022-10-28T16:06:33.921Z,153440.00
2022-10-28T16:09:16.686Z,153433.53
2022-10-28T16:11:50.521Z,153424.47
2022-10-28T16:14:32.873Z,153401.13
2022-10-28T16:17:16.715Z,153416.72
2022-10-28T16:19:49.897Z,153403.72
2022-10-28T16:22:21.136Z,153393.38
2022-10-28T16:24:53.203Z,153388.19
2022-10-28T16:27:25.369Z,153386.91
2022-10-28T16:29:55.742Z,153389.47
2022-10-28T16:32:35.454Z,153394.66
2022-10-28T16:35:06.671Z,153366.13
2022-10-28T16:37:44.182Z,153359.66
2022-10-28T16:40:37.794Z,153351.84
2022-10-28T16:43:06.636Z,153364.84
2022-10-28T16:45:39.981Z,153348.00
2022-10-28T16:48:16.759Z,153345.41
2022-10-28T16:50:51.095Z,153349.28
2022-10-28T16:53:22.188Z,153359.66
2022-10-28T16:55:53.056Z,153346.69
2022-10-28T16:58:26.142Z,153333.69
2022-10-28T17:00:58.505Z,153325.91
2022-10-28T17:03:31.710Z,153302.63
2022-10-28T17:06:02.164Z,153293.53
2022-10-28T17:08:57.083Z,153294.81
2022-10-28T17:11:22.742Z,153307.78
2022-10-28T17:13:53.343Z,153312.97
2022-10-28T17:16:24.225Z,153305.19
2022-10-28T17:18:57.315Z,153300.00
2022-10-28T17:21:28.001Z,153293.53
2022-10-28T17:23:58.199Z,153309.06
2022-10-28T17:26:28.875Z,153315.53
2022-10-28T17:28:59.380Z,153300.00
2022-10-28T17:31:29.597Z,153302.63
2022-10-28T17:34:02.518Z,153307.78
2022-10-28T17:36:32.634Z,153311.66
2022-10-28T17:39:02.689Z,153303.91
2022-10-28T17:41:32.942Z,153292.22
2022-10-28T17:44:02.986Z,153301.28
2022-10-28T17:46:33.124Z,153302.63
2022-10-28T17:49:09.455Z,153300.00
2022-10-28T17:51:40.038Z,153292.22
2022-10-28T17:54:10.227Z,153305.19
2022-10-28T17:56:42.268Z,153300.00
2022-10-28T17:59:12.647Z,153302.63
2022-10-28T18:01:42.921Z,153290.94
2022-10-28T18:04:16.060Z,153294.81
2022-10-28T18:06:46.346Z,153300.00
2022-10-28T18:09:16.566Z,153303.91
2022-10-28T18:11:46.872Z,153302.63
2022-10-28T18:14:17.506Z,153297.38
2022-10-28T18:16:50.325Z,153300.00
2022-10-28T18:19:23.185Z,153301.28
2022-10-28T18:21:53.236Z,153301.28
2022-10-28T18:24:26.086Z,153300.00
2022-10-28T18:26:59.104Z,153294.81
2022-10-28T18:29:29.185Z,153288.34
2022-10-28T18:32:00.793Z,153292.22
2022-10-28T18:34:34.345Z,153288.34
2022-10-28T18:37:08.305Z,153287.03
2022-10-28T18:39:38.512Z,153281.84
2022-10-28T18:42:12.279Z,153271.47
2022-10-28T18:44:42.775Z,153275.38
2022-10-28T18:47:13.008Z,153265.03
2022-10-28T18:49:46.382Z,153259.84
2022-10-28T18:52:16.734Z,153274.09
2022-10-28T18:54:47.173Z,153261.13
2022-10-28T18:57:17.697Z,153262.41
2022-10-28T19:00:16.952Z,153242.97
2022-10-28T19:02:38.832Z,153248.19
2022-10-28T19:05:14.775Z,153255.94
2022-10-28T19:07:45.008Z,153259.84
2022-10-28T19:10:15.828Z,153266.31
2022-10-28T19:12:51.997Z,153266.31
2022-10-28T19:15:23.131Z,153279.28
2022-10-28T19:17:55.666Z,153278.00
2022-10-28T19:20:29.037Z,153258.56
2022-10-28T19:22:59.547Z,153255.94
2022-10-28T19:25:32.336Z,153242.97
2022-10-28T19:28:02.814Z,153239.13
2022-10-28T19:30:33.569Z,153232.63
2022-10-28T19:33:04.015Z,153217.06
2022-10-28T19:35:38.717Z,153224.88
2022-10-28T19:38:08.895Z,153237.78
2022-10-28T19:40:40.021Z,153233.94
2022-10-28T19:43:10.534Z,153223.59
2022-10-28T19:45:41.272Z,153232.63
2022-10-28T19:48:11.560Z,153232.63
2022-10-28T19:50:51.961Z,153226.16
2022-10-28T19:53:22.927Z,153236.50
2022-10-28T19:55:57.465Z,153233.94
2022-10-28T19:58:27.828Z,153242.97
2022-10-28T20:01:06.886Z,153236.50
2022-10-28T20:03:39.287Z,153249.47
2022-10-28T20:06:14.366Z,153241.69
2022-10-28T20:08:46.557Z,153240.41
2022-10-28T20:11:21.440Z,153231.31
2022-10-28T20:13:57.171Z,153230.03
2022-10-28T20:16:32.605Z,153236.50
2022-10-28T20:19:02.710Z,153235.22
2022-10-28T20:21:37.449Z,153239.13
2022-10-28T20:24:09.845Z,153240.41
2022-10-28T20:26:41.587Z,153253.38
2022-10-28T20:29:11.811Z,153249.47
2022-10-28T20:31:41.874Z,153254.66
2022-10-28T20:34:12.298Z,153250.75
2022-10-28T20:36:46.910Z,153252.03
2022-10-28T20:39:18.662Z,153254.66
2022-10-28T20:41:51.238Z,153257.22
2022-10-28T20:44:21.498Z,153262.41
2022-10-28T20:46:51.710Z,153253.38
2022-10-28T20:49:21.973Z,153258.56
2022-10-28T20:51:55.342Z,153258.56
2022-10-28T20:54:25.815Z,153255.94
2022-10-28T20:56:55.850Z,153248.19
2022-10-28T20:59:25.855Z,153255.94
2022-10-28T21:01:56.041Z,153258.56
2022-10-28T21:04:26.265Z,153266.31
2022-10-28T21:06:59.034Z,153252.03
2022-10-28T21:09:33.121Z,153250.75
2022-10-28T21:12:03.295Z,153239.13
2022-10-28T21:14:33.340Z,153249.47
2022-10-28T21:17:03.444Z,153246.88
2022-10-28T21:19:33.571Z,153245.59
2022-10-28T21:22:06.423Z,153248.19
2022-10-28T21:24:36.493Z,153246.88
2022-10-28T21:27:06.638Z,153245.59
2022-10-28T21:29:36.695Z,153250.75
2022-10-28T21:32:06.931Z,153250.75
2022-10-28T21:34:37.049Z,153244.31
2022-10-28T21:37:09.940Z,153242.97
2022-10-28T21:39:40.364Z,153231.31
2022-10-28T21:42:10.483Z,153230.03
2022-10-28T21:44:40.510Z,153237.78
2022-10-28T21:47:10.616Z,153241.69
2022-10-28T21:49:40.751Z,153237.78
2022-10-28T21:52:13.460Z,153237.78
2022-10-28T21:54:45.712Z,153237.78
2022-10-28T21:57:15.811Z,153244.31
2022-10-28T21:59:49.624Z,153231.31
2022-10-28T22:02:20.090Z,153242.97
2022-10-28T22:04:50.234Z,153228.75
2022-10-28T22:07:24.876Z,153222.25
2022-10-28T22:09:54.904Z,153214.50
2022-10-28T22:12:25.058Z,153187.28
2022-10-28T22:14:55.114Z,153183.38
2022-10-28T22:17:25.331Z,153186.00
2022-10-28T22:19:55.530Z,153178.19
2022-10-28T22:22:30.224Z,153156.19
2022-10-28T22:25:01.240Z,153162.66
2022-10-28T22:27:32.244Z,153160.09
2022-10-28T22:30:02.331Z,153183.38
2022-10-28T22:32:32.542Z,153193.78
2022-10-28T22:35:02.708Z,153170.47
2022-10-28T22:37:35.404Z,153169.16
2022-10-28T22:40:05.432Z,153162.66
2022-10-28T22:42:35.462Z,153162.66
2022-10-28T22:45:05.656Z,153151.03
2022-10-28T22:47:35.709Z,153162.66
2022-10-28T22:50:06.073Z,153139.38
2022-10-28T22:52:38.862Z,153144.56
2022-10-28T22:55:09.775Z,153132.88
2022-10-28T22:57:39.799Z,153140.66
2022-10-28T23:00:11.587Z,153135.50
2022-10-28T23:02:41.843Z,153140.66
2022-10-28T23:05:14.688Z,153157.47
2022-10-28T23:07:47.506Z,153157.47
2022-10-28T23:10:17.739Z,153132.88
2022-10-28T23:12:48.038Z,153116.06
2022-10-28T23:15:23.192Z,153126.41
2022-10-28T23:17:53.864Z,153114.78
2022-10-28T23:20:25.729Z,153128.97
2022-10-28T23:23:00.763Z,153104.38
2022-10-28T23:25:30.745Z,153100.53
2022-10-28T23:28:00.828Z,153069.41
2022-10-28T23:30:36.950Z,153085.00
2022-10-28T23:33:07.309Z,153075.91
2022-10-28T23:35:37.459Z,153087.56
2022-10-28T23:38:11.174Z,153087.56
2022-10-28T23:40:41.321Z,153075.91
2022-10-28T23:43:11.332Z,153082.38
2022-10-28T23:45:42.313Z,153100.53
2022-10-28T23:48:12.401Z,153100.53
2022-10-28T23:50:42.413Z,153088.84
2022-10-28T23:53:15.213Z,153092.72
2022-10-28T23:55:46.789Z,153094.00
2022-10-28T23:58:18.445Z,153065.56
